x

Santa Monica Basin - 33nm Wsw Of Santa Monica, Ca (46025) Wave Buoy

2:50am - Wed 22nd Feb 2017 All times are PST. -8 hours from GMT.

  • Sig Wave height 7.2ft
  • Swell Direction
  • Peak Period 12s
  • Average Period 8s
  • Wind
    13mph, 16mph gusts
  • Sea Temp 58°f
  • Air Temp 58°f
  • Sea Pressure 1021mb
  • Santa Monica Basin - 33nm Wsw Of Santa Monica, Ca
  • Santa Monica Basin - 33nm Wsw Of Santa Monica, Ca

More Historic Weather Station data

Upgrade to MSW Pro to gain access to the past 30 days of data for over 8000 Wavebouys and Weather Stations around the globe.

Join Pro

Comparision Forecast

View Surf forecast
   
Wed 02/22 2:50am 7ft 12s 8s 13 16 mph 1021mb 58f 58f
2:40am 7ft  -  8s 13 18 mph 1021.1mb 58f 58f
2:30am  -   -   -  16 20 mph 1021.3mb 58f 58f
2:20am  -   -   -  16 18 mph 1021.5mb 58f 58f
2:10am  -   -   -  16 20 mph 1021.6mb 58f 58f
2:00am  -   -   -  16 20 mph 1021.6mb 58f 58f
1:50am 7.5ft 11s 9s 16 18 mph 1021.6mb 58f 58f
1:40am 7.5ft  -  9s 13 20 mph 1021.9mb 58f 58f
1:30am  -   -   -  11 16 mph 1022.1mb 58f 58f
1:20am  -   -   -  11 16 mph 1022.4mb 58f 58f
1:10am  -   -   -  11 16 mph 1022.5mb 58f 58f
1:00am  -   -   -  11 16 mph 1022.5mb 58f 57f
12:50am 7ft 11s 9s 11 16 mph 1022.5mb 58f 57f
12:40am 7ft  -  9s 11 13 mph 1022.6mb 58f 57f
12:30am  -   -   -  11 13 mph 1022.9mb 58f 57f
12:20am  -   -   -  11 13 mph 1023mb 58f 57f
12:10am  -   -   -  11 16 mph 1023.1mb 58f 57f
12:00am  -   -   -  11 16 mph 1023.3mb 58f 57f
Tue 02/21 11:50pm 7ft 11s 9s 11 13 mph 1023.5mb 58f 57f
11:40pm  -   -   -  11 13 mph 1023.5mb 58f 57f
11:30pm  -   -   -  11 16 mph 1023.6mb 58f 57f
11:20pm  -   -   -  11 16 mph 1023.6mb 58f 57f
11:10pm  -   -   -  11 16 mph 1023.6mb 58f 57f
11:00pm  -   -   -  9 11 mph 1023.5mb 58f 57f
10:50pm 6ft 11s 9s 9 11 mph 1023.6mb 58f 56f
10:40pm 6ft  -  9s 7 9 mph 1023.8mb 58f 56f
10:30pm  -   -   -  4 9 mph 1023.6mb 58f 56f
10:20pm  -   -   -  7 9 mph 1023.6mb 58f 56f
10:10pm  -   -   -  7 9 mph 1023.9mb 58f 57f
10:00pm  -   -   -  7 9 mph 1023.9mb 58f 57f
9:50pm 7ft 11s 9s 7 9 mph 1024mb 58f 57f
9:40pm 7ft  -  9s 4 9 mph 1024mb 58f 56f
9:30pm  -   -   -  4 7 mph 1024mb 58f 56f
9:20pm  -   -   -  7 9 mph 1024mb 58f 56f
9:10pm  -   -   -  7 9 mph 1024mb - 57f
9:00pm  -   -   -  7 9 mph 1023.9mb 58f 57f
8:50pm 6ft 12s 9s 7 9 mph 1024mb 58f 57f
8:40pm 6ft  -  9s 4 9 mph 1023.6mb 58f 57f
8:30pm  -   -   -  4 9 mph 1023.6mb 58f 57f
8:20pm  -   -   -  4 7 mph 1023.5mb 58f 57f
8:10pm  -   -   -  4 9 mph 1023.6mb 58f 57f
8:00pm  -   -   -  4 7 mph 1023.5mb 58f 57f
7:50pm 6ft 11s 9s 4 7 mph 1023.4mb 58f 58f
7:40pm 6ft  -  9s 4 7 mph 1023.5mb 58f 58f
7:30pm  -   -   -  4 7 mph 1023.3mb 58f 58f
7:20pm  -   -   -  4 7 mph 1023.5mb 58f 58f
7:10pm  -   -   -  4 7 mph 1023.5mb 59f 58f
7:00pm  -   -   -  4 7 mph 1023.4mb 59f 58f
6:50pm 6.5ft 11s 9s 4 7 mph 1023.4mb 59f 58f
6:40pm  -   -   -  4 7 mph 1023.5mb 59f 59f
6:30pm  -   -   -  4 7 mph 1023.6mb 59f 59f
6:20pm  -   -   -  4
mph
1023.5mb 59f 59f
6:10pm  -   -   -  4
mph
1023.5mb 59f 59f
6:00pm  -   -   -  2 4 mph 1023.3mb 59f 59f
5:50pm 5.5ft 12s 8s 2 4 mph 1023.5mb 59f 59f
5:40pm  -   -   -  2 4 mph 1023.5mb 59f 59f
5:30pm  -   -   -  2 4 mph 1023.5mb 59f 59f
5:20pm  -   -   -  4
mph
1023.5mb - 59f
5:10pm  -   -   -  4 7 mph 1023.8mb 59f 59f
5:00pm  -   -   -  2 4 mph 1023.9mb 59f 59f
4:50pm 5.5ft 13s 9s  -  2 mph 1023.6mb 59f 59f
4:40pm 5.5ft  -  9s 2 4 mph 1023.6mb 59f 59f
4:30pm  -   -   -  2 4 mph 1023.8mb 59f 59f
4:20pm  -   -   -  2 4 mph 1023.9mb 59f 59f
4:10pm  -   -   -  2 4 mph 1024mb 58f 59f
4:00pm  -   -   -  2 4 mph 1024mb 58f 59f
3:50pm 5ft 13s 9s 2 4 mph 1024mb 59f 59f
3:40pm 5ft  -  9s 2 4 mph 1024mb 59f 59f
3:30pm  -   -   -  4 7 mph 1024mb 59f 59f
3:20pm  -   -   -  4
mph
1024.2mb 59f 59f
3:10pm  -   -   -  2 4 mph 1024.3mb 59f 59f
3:00pm  -   -   -  2 4 mph 1024.3mb 59f 59f
2:50pm 5ft 13s 9s 4
mph
1024.3mb 59f 59f
2:40pm  -   -   -  2 4 mph 1024.3mb 59f 59f
2:30pm  -   -   -  4 7 mph 1024.3mb 59f 59f
2:20pm  -   -   -  4
mph
1024.3mb 59f 59f
2:10pm  -   -   -  4
mph
1024.5mb - 59f
2:00pm  -   -   -  2 7 mph 1024.7mb 58f 59f
1:50pm 5ft 12s 8s 2 4 mph 1024.5mb 58f 59f
1:40pm  -   -   -  4 7 mph 1024.7mb 58f 59f
1:30pm  -   -   -  4 7 mph 1025mb 58f 59f
1:20pm  -   -   -  4 7 mph 1025mb 58f 59f
1:10pm  -   -   -  4 7 mph 1025.3mb 58f 59f
1:00pm  -   -   -  7 9 mph 1025.3mb 58f 59f
12:50pm 5.5ft 12s 8s 4 7 mph 1025.5mb 58f 59f
12:40pm  -   -   -  4 7 mph 1025.8mb 58f 59f
12:30pm  -   -   -  7
mph
1025.8mb 58f 59f
12:20pm  -   -   -  4 7 mph 1026.2mb 58f 59f
12:10pm  -   -   -  9 11 mph 1026.2mb 58f 59f
12:00pm  -   -   -  4 9 mph 1026.2mb 58f 59f
11:50am 5ft 12s 8s 4 7 mph 1026.7mb 58f 59f
11:40am 5ft  -  8s 4 7 mph 1026.8mb 58f 59f
11:30am  -   -   -  7 9 mph 1026.8mb 58f 59f
11:20am  -   -   -  4 7 mph 1026.8mb 58f 59f
11:10am  -   -   -  4 7 mph 1026.8mb 58f 59f
11:00am  -   -   -  4
mph
1027mb 58f 59f
10:50am 5ft 14s 8s 2 4 mph 1027.3mb 58f 59f
10:40am 5ft  -  8s 4 7 mph 1027.2mb 58f 59f
10:30am  -   -   -  4
mph
1027mb 58f 59f
10:20am  -   -   -  4 7 mph 1027.2mb 58f 59f
10:10am  -   -   -  4 7 mph 1027.3mb 58f 59f
10:00am  -   -   -  4 7 mph 1027.3mb 58f 59f
9:50am 5ft 13s 8s 4 7 mph 1027.3mb 58f 59f
9:40am 5ft  -  8s 4 7 mph 1027.2mb 58f 59f
9:30am  -   -   -  4 7 mph 1026.8mb 58f 59f
9:20am  -   -   -  4
mph
1026.8mb 58f 59f
9:10am  -   -   -  4
mph
1027.2mb 58f 59f
9:00am  -   -   -  4 7 mph 1026.8mb 58f 59f
8:50am 5ft 15s 8s 7 9 mph 1026.7mb 58f 59f
8:40am 5ft  -  8s 9 11 mph 1026.3mb 58f 59f
8:30am  -   -   -  11 13 mph 1026mb 58f 58f
8:20am  -   -   -  9 11 mph 1026mb 58f 58f
8:10am  -   -   -  7 11 mph 1025.5mb 58f 58f
8:00am  -   -   -  7 9 mph 1026.5mb 58f 58f
7:50am 6ft 11s 8s 7 9 mph 1026mb 58f 59f
7:40am 6ft  -  8s 4 9 mph 1026.5mb 58f 59f
7:30am  -   -   -  4 7 mph 1026.8mb 58f 58f
7:20am  -   -   -  4 7 mph 1025.8mb 58f 58f
7:10am  -   -   -  7 9 mph 1025.5mb 58f 58f
7:00am  -   -   -  7 9 mph 1025.5mb 58f 58f
6:50am 5.5ft 10s 8s 7 9 mph 1025.5mb 58f 58f
6:40am 5.5ft  -  8s 4 7 mph 1025.3mb 58f 58f
6:30am  -   -   -  4 9 mph 1025.3mb 58f 58f
6:20am  -   -   -  4 9 mph 1025.5mb 58f 58f
6:10am  -   -   -  4 9 mph 1025.3mb 58f 58f
6:00am  -   -   -  4 9 mph 1025.5mb 58f 58f
5:50am 6ft 15s 8s 4 9 mph 1025.5mb 58f 58f
5:40am  -   -   -  7 11 mph 1025.3mb 58f 58f
5:30am  -   -   -  7 11 mph 1025.3mb 58f 58f
5:20am  -   -   -  7 11 mph 1025.3mb 58f 58f
5:10am  -   -   -  7 9 mph 1025.3mb 58f 58f
5:00am  -   -   -  7 9 mph 1025.3mb 58f 58f
4:50am 6ft 13s 8s 7 9 mph 1025.5mb 58f 58f
4:40am 6ft  -  8s 7 9 mph 1025.3mb 58f 58f
4:30am  -   -   -  7 11 mph 1025.3mb 58f 58f
4:20am  -   -   -  7 9 mph 1025.2mb 58f 58f
4:10am  -   -   -  7 11 mph 1025mb 58f 58f
4:00am  -   -   -  7 9 mph 1025.3mb 58f 58f
3:50am 6.5ft 14s 9s 7 9 mph 1025.3mb 58f 58f
3:40am 6.5ft  -  9s 7 11 mph 1025.3mb 58f 58f
3:30am  -   -   -  7 9 mph 1025.3mb 58f 58f
3:20am  -   -   -  7 9 mph 1025.3mb 58f 58f
3:10am  -   -   -  7 9 mph 1025.7mb 58f 58f
3:00am  -   -   -  4 9 mph 1025.8mb 58f 58f
2:50am 6ft 8s 8s 4 11 mph 1025.8mb 58f 58f
2:40am  -   -   -  4 9 mph 1025.8mb 58f 58f
2:30am  -   -   -  7 9 mph 1026mb 58f 58f
2:20am  -   -   -  7 9 mph 1025.8mb 58f 58f
2:10am  -   -   -  7 11 mph 1026.2mb 58f 58f
2:00am  -   -   -  7 11 mph 1026.2mb 58f 58f
1:50am 6ft 11s 8s 7 9 mph 1026.3mb 58f 58f
1:40am 6ft  -  8s 7 11 mph 1026.3mb 58f 58f
1:30am  -   -   -  7 11 mph 1026.3mb - 58f
1:20am  -   -   -  7 9 mph 1026.3mb 58f 58f
1:10am  -   -   -  4 9 mph 1026.5mb - 58f
1:00am  -   -   -  4 9 mph 1026.5mb 58f 58f
12:50am 6.5ft 11s 8s 4 7 mph 1026.5mb 58f 58f
12:40am  -   -   -  4 7 mph 1026.5mb 58f 58f
12:30am  -   -   -  2 7 mph 1026.5mb 58f 58f
12:20am  -   -   -  2 7 mph 1026.3mb 58f 58f
12:10am  -   -   -  2 7 mph 1026.2mb 58f 58f
12:00am  -   -   -  4 7 mph 1026.2mb 58f 58f
Mon 02/20 11:50pm 6ft 16s 8s 4 7 mph 1026.2mb 58f 58f
11:40pm 6ft  -  8s 4 9 mph 1026mb 58f 58f
11:30pm  -   -   -  7 9 mph 1026mb 58f 58f
11:20pm  -   -   -  7 9 mph 1026.2mb 58f 58f
11:10pm  -   -   -  9 13 mph 1025.8mb 58f 58f
11:00pm  -   -   -  9 13 mph 1025.7mb 58f 58f
10:50pm 6ft 11s 8s 9 13 mph 1025.8mb 58f 58f
10:40pm 6ft  -  8s 9 13 mph 1025.8mb 58f 58f
10:30pm  -   -   -  9 11 mph 1025.8mb 58f 58f
10:20pm  -   -   -  9 13 mph 1025.7mb 58f 58f
10:10pm  -   -   -  9 11 mph 1025.8mb 58f 58f
10:00pm  -   -   -  7 11 mph 1025.8mb 58f 58f
9:50pm 5.5ft 11s 8s 7 9 mph 1025.8mb 58f 58f
9:40pm 5.5ft  -  8s 7 9 mph 1025.8mb 58f 58f
9:30pm  -   -   -  7 9 mph 1025.8mb 58f 58f
9:20pm  -   -   -  4 7 mph 1026mb 58f 58f
9:10pm  -   -   -  4 7 mph 1026mb 58f 58f
9:00pm  -   -   -  4 7 mph 1026mb 58f 59f
8:50pm 5ft 12s 7s 4 7 mph 1026mb 58f 59f
8:40pm  -   -   -  4 7 mph 1026mb 58f 59f
8:30pm  -   -   -  4 7 mph 1025.8mb 58f 59f
8:20pm  -   -   -  4 7 mph 1025.8mb 58f 59f
8:10pm  -   -   -  4 7 mph 1025.8mb 58f 59f
8:00pm  -   -   -  4 7 mph 1025.8mb 58f 59f
7:50pm 5ft 12s 7s 4 7 mph 1025.7mb 58f 59f
7:40pm 5ft  -  7s 4 7 mph 1025.7mb 58f 59f
7:30pm  -   -   -  4 7 mph 1025.5mb 58f 59f
7:20pm  -   -   -  7 9 mph 1025.3mb 58f 59f
7:10pm  -   -   -  7 9 mph 1025.2mb 58f 59f
7:00pm  -   -   -  7 9 mph 1025mb 58f 59f
6:50pm 5ft 12s 7s 7 9 mph 1024.8mb 58f 59f
6:40pm 5ft  -  7s 7 9 mph 1024.8mb 58f 58f
6:30pm  -   -   -  7 9 mph 1025mb 58f 58f
6:20pm  -   -   -  7 11 mph 1024.7mb 58f 58f
6:10pm  -   -   -  7 11 mph 1024.7mb 58f 58f
6:00pm  -   -   -  7 9 mph 1024.7mb 58f 58f
5:50pm 5.5ft 13s 7s 7 9 mph 1024.8mb 58f 58f
5:40pm 5.5ft  -  7s 7 9 mph 1024.7mb 58f 58f
5:30pm  -   -   -  9 11 mph 1024.5mb 58f 58f
5:20pm  -   -   -  9 11 mph 1024.5mb 58f 58f
5:10pm  -   -   -  9 11 mph 1024.5mb 58f 58f
5:00pm  -   -   -  9 11 mph 1024.3mb 58f 58f
4:50pm 5.5ft 12s 6s 9 11 mph 1024.2mb 58f 58f
4:40pm  -   -   -  9 11 mph 1024mb 58f 58f
4:30pm  -   -   -  9 11 mph 1024mb 58f 58f
4:20pm  -   -   -  9 11 mph 1024mb 58f 58f
4:10pm  -   -   -  9 13 mph 1024mb 58f 58f
4:00pm  -   -   -  9 11 mph 1023.9mb 58f 58f
3:50pm 5.5ft 11s 6s 9 13 mph 1024.2mb 58f 58f
3:40pm 5.5ft  -  6s 9 13 mph 1024mb 58f 58f
3:30pm  -   -   -  11 13 mph 1023.9mb 58f 58f
3:20pm  -   -   -  11 16 mph 1023.8mb 58f 58f
3:10pm  -   -   -  11 16 mph 1023.6mb 58f 57f
3:00pm  -   -   -  13 18 mph 1023.4mb 58f 57f
2:50pm 6ft 11s 6s 16 18 mph 1023.1mb 58f 57f
2:40pm 6ft  -  6s 16 18 mph 1023.3mb 58f 57f
2:30pm  -   -   -  16 20 mph 1023.3mb 58f 57f
2:20pm  -   -   -  13 18 mph 1023.3mb 58f 57f
2:10pm  -   -   -  13 18 mph 1023.3mb 58f 57f
2:00pm  -   -   -  13 18 mph 1023.3mb 58f 57f
1:50pm 6ft 13s 6s 16 20 mph 1023.3mb 58f 57f
1:40pm 6ft  -  6s 16 20 mph 1023.1mb 58f 57f
1:30pm  -   -   -  16 18 mph 1023.1mb - 57f
1:20pm  -   -   -  16 20 mph 1023mb 58f 57f
1:10pm  -   -   -  16 18 mph 1023.3mb 58f 57f
1:00pm  -   -   -  16 20 mph 1023.5mb 58f 57f
12:50pm 6.5ft 13s 6s 13 20 mph 1023.5mb 58f 57f
12:40pm 6.5ft  -  6s 13 20 mph 1023.9mb 58f 57f
12:30pm  -   -   -  16 20 mph 1023.9mb 58f 57f
12:20pm  -   -   -  16 20 mph 1023.9mb 58f 57f
12:10pm  -   -   -  16 20 mph 1024mb 58f 57f
12:00pm  -   -   -  18 20 mph 1024mb 58f 57f
11:50am 6ft 13s 6s 18 22 mph 1024mb 58f 57f
11:40am 6ft  -  6s 18 25 mph 1024.2mb 58f 56f
11:30am  -   -   -  18 22 mph 1024.3mb 58f 57f
11:20am  -   -   -  16 20 mph 1024.5mb 58f 56f
11:10am  -   -   -  18 20 mph 1024.3mb 58f 56f
11:00am  -   -   -  18 22 mph 1024.3mb 58f 56f
10:50am 6ft 13s 6s 18 25 mph 1024.3mb 58f 56f
10:40am 6ft  -  6s 16 20 mph 1024.3mb 58f 56f
10:30am  -   -   -  18 20 mph 1024.3mb 58f 56f
10:20am  -   -   -  16 20 mph 1024mb 58f 56f
10:10am  -   -   -  18 22 mph 1024mb 58f 56f
10:00am  -   -   -  16 20 mph 1024.3mb 58f 56f
9:50am 5ft 13s 6s 18 22 mph 1024mb 58f 56f
9:40am 5ft  -  6s 16 20 mph 1024mb 58f 56f
9:30am  -   -   -  18 22 mph 1023.9mb 58f 56f
9:20am  -   -   -  18 22 mph 1023.6mb 58f 56f
9:10am  -   -   -  16 20 mph 1023.8mb 58f 56f
9:00am  -   -   -  16 18 mph 1023.8mb 58f 56f
8:50am 5.5ft 13s 6s 16 20 mph 1023.5mb 58f 56f
8:40am 5.5ft  -  6s 13 18 mph 1023.6mb 58f 56f
8:30am  -   -   -  16 20 mph 1023.5mb 58f 56f
8:20am  -   -   -  16 20 mph 1023.3mb 58f 56f
8:10am  -   -   -  16 20 mph 1023mb 58f 56f
8:00am  -   -   -  16 20 mph 1023mb 58f 56f
7:50am 5ft 12s 6s 16 20 mph 1023mb 58f 56f
7:40am 5ft  -  6s 13 18 mph 1022.9mb 58f 55f
7:30am  -   -   -  16 18 mph 1022.6mb 58f 55f
7:20am  -   -   -  16 20 mph 1022.4mb 58f 55f
7:10am  -   -   -  16 20 mph 1022.4mb 58f 55f
7:00am  -   -   -  16 20 mph 1022mb 58f 55f
6:50am 5ft 12s 7s 16 20 mph 1022mb 58f 55f
6:40am 5ft  -  7s 16 18 mph 1022mb 58f 55f
6:30am  -   -   -  13 18 mph 1022mb - 55f
6:20am  -   -   -  13 18 mph 1022mb 58f 55f
6:10am  -   -   -  13 18 mph 1022mb 58f 55f
6:00am  -   -   -  16 18 mph 1021.9mb 58f 55f
5:50am 5ft 11s 7s 16 18 mph 1021.8mb 58f 55f
5:40am 5ft  -  7s 16 18 mph 1021.6mb 58f 55f
5:30am  -   -   -  13 20 mph 1021.5mb 58f 55f
5:20am  -   -   -  13 18 mph 1021.5mb 58f 55f
5:10am  -   -   -  16 18 mph 1021.5mb 58f 55f
5:00am  -   -   -  16 20 mph 1021.5mb - -
4:50am 5.5ft 13s 7s 16 20 mph 1021.5mb 58f 55f
4:40am 5.5ft  -  7s 13 20 mph 1021.3mb - 55f
4:30am  -   -   -  16 18 mph 1021.1mb 58f 55f
4:20am  -   -   -  16 20 mph 1021mb 58f 55f
4:10am  -   -   -  16 20 mph 1021mb 58f 55f
4:00am  -   -   -  13 18 mph 1021mb 58f 55f
3:50am 5ft 13s 7s 13 18 mph 1021mb 58f 55f
3:40am 5ft  -  7s 13 18 mph 1020.8mb 58f 54f
3:30am  -   -   -  13 18 mph 1021mb 58f 55f
3:20am  -   -   -  13 18 mph 1021mb 58f 54f
3:10am  -   -   -  13 18 mph 1020.6mb 58f 54f
3:00am  -   -   -  11 18 mph 1020.6mb 58f 54f
2:50am 5ft 11s 8s 11 16 mph 1021.1mb 58f 54f
2:40am 5ft  -  8s 11 16 mph 1021mb 58f 54f
2:30am  -   -   -  11 16 mph 1021.1mb 58f 54f
2:20am  -   -   -  11 16 mph 1021mb 58f 54f
2:10am  -   -   -  13 16 mph 1021mb 58f 54f
2:00am  -   -   -  11 16 mph 1021mb 58f 54f
1:50am 5ft 10s 8s 11 16 mph 1021mb 58f 54f
1:40am 5ft  -  8s 11 16 mph 1021.1mb 58f 54f
1:30am  -   -   -  11 16 mph 1021.1mb 58f 54f
1:20am  -   -   -  9 13 mph 1021.1mb 58f 54f
1:10am  -   -   -  7 13 mph 1021.3mb 58f 54f
1:00am  -   -   -  7 13 mph 1021.4mb 58f 54f
12:50am 5ft 11s 8s 9 11 mph 1021.6mb 58f 54f
12:40am 5ft  -  8s 9 11 mph 1021.4mb 58f 54f
12:30am  -   -   -  9 11 mph 1021.3mb 58f 54f
12:20am  -   -   -  7 11 mph 1021.1mb 58f 53f
12:10am  -   -   -  4 11 mph 1021.3mb 58f 53f
12:00am  -   -   -  4 9 mph 1021.3mb 58f 53f
Sun 02/19 11:50pm 5ft 13s 8s 4 9 mph 1021.3mb 58f 53f
11:40pm 5ft  -  8s 4 9 mph 1021.4mb 58f 53f
11:30pm  -   -   -  7 9 mph 1021.4mb 58f 53f
11:20pm  -   -   -  4 9 mph 1021.3mb 58f 53f
11:10pm  -   -   -  2 11 mph 1021mb 58f 53f
11:00pm  -   -   -  2 7 mph 1020.9mb 58f 53f
10:50pm 5ft 14s 8s 2 7 mph 1020.8mb 58f 53f
10:40pm 5ft  -  8s 2 7 mph 1020.9mb - 53f
10:30pm  -   -   -  2 7 mph 1020.8mb 59f 53f
10:20pm  -   -   -  2 7 mph 1020.9mb 59f 53f
10:10pm  -   -   -  2 7 mph 1020.9mb 59f 53f
10:00pm  -   -   -  4 7 mph 1020.9mb 59f 53f
9:50pm 5ft 13s 8s 7 9 mph 1020.9mb 59f 53f
9:40pm  -   -   -  9 11 mph 1020.8mb 59f 53f
9:30pm  -   -   -  9 11 mph 1020.5mb 59f 53f
9:20pm  -   -   -  9 11 mph 1020.4mb 59f 53f
9:10pm  -   -   -  11 13 mph 1020mb 59f 53f
9:00pm  -   -   -  11 13 mph 1020mb 59f 53f
8:50pm 5.5ft 11s 8s 11 13 mph 1019.6mb 59f 53f
8:40pm 5.5ft  -  8s 11 13 mph 1019.5mb 59f 54f
8:30pm  -   -   -  9 13 mph 1019.4mb 59f 54f
8:20pm  -   -   -  11 13 mph 1019.3mb 59f 55f
8:10pm  -   -   -  7 11 mph 1019.4mb 59f 55f
8:00pm  -   -   -  9 11 mph 1019.1mb 59f 56f
7:50pm 5ft 13s 8s 9 13 mph 1019mb 59f 56f
7:40pm 5ft  -  8s 11 13 mph 1019mb 59f 56f
7:30pm  -   -   -  9 13 mph 1018.8mb 59f 57f
7:20pm  -   -   -  9 11 mph 1018.5mb - 56f
7:10pm  -   -   -  9 11 mph 1018mb 59f 56f
7:00pm  -   -   -  9 11 mph 1017.9mb 59f 57f
6:50pm 6ft 12s 8s 11 13 mph 1017.9mb 59f 57f
6:40pm 6ft  -  8s 11 13 mph 1017.9mb 59f 57f
6:30pm  -   -   -  9 11 mph 1017.6mb 59f 57f
6:20pm  -   -   -  9 13 mph 1017.4mb 59f 57f
6:10pm  -   -   -  9 11 mph 1017.1mb 59f 57f
6:00pm  -   -   -  9 13 mph 1017.1mb 59f 57f
5:50pm 6ft 13s 8s 11 13 mph 1017.3mb 59f 57f
5:40pm 6ft  -  8s 11 13 mph 1017.1mb 59f 57f
5:30pm  -   -   -  11 13 mph 1017mb 59f 57f
5:20pm  -   -   -  11 13 mph 1016.9mb - 57f
5:10pm  -   -   -  11 13 mph 1016.8mb 59f 57f
5:00pm  -   -   -  11 13 mph 1016.8mb 59f 57f
4:50pm 6.5ft 14s 8s 11 13 mph 1016.5mb 59f 57f
4:40pm 6.5ft  -  8s 4 9 mph 1016.3mb 59f 57f
4:30pm  -   -   -  2 4 mph 1016mb 59f 57f
4:20pm  -   -   -  2 4 mph 1015.9mb 59f 57f
4:10pm  -   -   -  4 7 mph 1016mb 59f 57f
4:00pm  -   -   -  4 7 mph 1016mb 59f 57f
3:50pm 6ft 13s 7s 4 7 mph 1015.8mb 59f 57f
3:40pm  -   -   -  4 7 mph 1015.5mb 59f 57f
3:30pm  -   -   -  4 7 mph 1015.6mb 59f 57f
3:20pm  -   -   -  4 7 mph 1015.5mb 59f 58f
3:10pm  -   -   -  4 7 mph 1015.9mb 59f 58f
3:00pm  -   -   -  4 7 mph 1015.6mb 59f 58f
2:50pm 6.5ft  -  7s 4 7 mph 1015.5mb - 58f
2:40pm 6.5ft 12s 7s  -  mph - 59f -
2:30pm  -   -   -  2 4 mph 1015.5mb 59f 58f
2:20pm  -   -   -  2 4 mph 1015.4mb 59f 58f
2:10pm  -   -   -  2 4 mph 1015.3mb 59f 58f
2:00pm  -   -   -  2 7 mph 1015.1mb 59f 57f
1:50pm 7ft 12s 7s 4 7 mph 1015.3mb 59f 57f
1:40pm 7ft  -  7s 2 7 mph 1015.1mb 59f 57f
1:30pm  -   -   -  4 7 mph 1015.1mb 59f 57f
1:20pm  -   -   -  4 9 mph 1015.1mb 59f 57f
1:10pm  -   -   -  7 9 mph 1015.3mb 59f 57f
1:00pm  -   -   -  7 11 mph 1015.1mb 58f 57f
12:50pm 7ft 13s 7s 7 11 mph 1015.3mb 59f 57f
12:40pm 7ft  -  7s 7 11 mph 1015.4mb 58f 57f
12:30pm  -   -   -  7 9 mph 1015.3mb 58f 57f
12:20pm  -   -   -  7 11 mph 1015.4mb 58f 57f
12:10pm  -   -   -  7 11 mph 1015.1mb 58f 57f
12:00pm  -   -   -  9 11 mph 1015.1mb 58f 57f
11:50am 9ft 13s 8s 9 11 mph 1015.4mb 58f 57f
11:40am 9ft  -  8s 7 9 mph 1015.4mb 58f 57f
11:30am  -   -   -  4 9 mph 1015mb - 57f
11:20am  -   -   -  4 7 mph 1015mb 58f 57f
11:10am  -   -   -  4 9 mph 1014.9mb 58f 57f
11:00am  -   -   -  4 9 mph 1014.9mb 58f 57f
10:50am 9ft 13s 8s 4 9 mph 1014.9mb 58f 57f
10:40am 9ft  -  8s 4 9 mph 1014.8mb 58f 56f
10:30am  -   -   -  4 9 mph 1014.5mb 58f 56f
10:20am  -   -   -  4 9 mph 1014.5mb 58f 56f
10:10am  -   -   -  4 11 mph 1014.4mb 58f 56f
10:00am  -   -   -  7 11 mph 1014mb 58f 56f
9:50am 9.5ft 13s 8s 9 11 mph 1014mb 58f 56f
9:40am 9.5ft  -  8s 9 13 mph 1013.8mb 58f 56f
9:30am  -   -   -  11 16 mph 1013.8mb 58f 56f
9:20am  -   -   -  11 16 mph 1013.8mb 58f 56f
9:10am  -   -   -  11 16 mph 1013.5mb 58f 56f
9:00am  -   -   -  13 18 mph 1013.1mb 58f 56f
8:50am 9.5ft 12s 8s 13 18 mph 1013mb 58f 56f
8:40am 9.5ft  -  8s 11 16 mph 1012.6mb 58f 56f
8:30am  -   -   -  11 16 mph 1012.5mb 58f 56f
8:20am  -   -   -  11 16 mph 1012.3mb 58f 56f
8:10am  -   -   -  11 16 mph 1012.1mb 58f 56f
8:00am  -   -   -  13 16 mph 1011.9mb 58f 56f
7:50am 9.5ft 13s 8s 13 18 mph 1011.8mb 58f 56f
7:40am 9.5ft  -  8s 13 18 mph 1011.5mb 58f 56f
7:30am  -   -   -  13 18 mph 1011.5mb 58f 56f
7:20am  -   -   -  13 18 mph 1011.4mb 58f 56f
7:10am  -   -   -  13 18 mph 1011.4mb 58f 56f
7:00am  -   -   -  13 18 mph 1011mb 58f 56f
6:50am 9.5ft 14s 8s 11 16 mph 1010.8mb 58f 56f
6:40am 9.5ft  -  8s 11 16 mph 1010.5mb 58f 56f
6:30am  -   -   -  13 16 mph 1010.4mb 58f 56f
6:20am  -   -   -  13 16 mph 1010.3mb 58f 56f
6:10am  -   -   -  13 18 mph 1010mb 58f 56f
6:00am  -   -   -  16 20 mph 1010mb 58f 55f
5:50am 10ft 13s 8s 16 20 mph 1010mb 58f 55f
5:40am 10ft  -  8s 16 20 mph 1009.9mb 58f 55f
5:30am  -   -   -  16 18 mph 1009.5mb 58f 55f
5:20am  -   -   -  16 20 mph 1009.4mb 58f 56f
5:10am  -   -   -  16 20 mph 1009.5mb 58f 55f
5:00am  -   -   -  18 20 mph 1009.4mb 58f 55f
4:50am 10ft 13s 8s 18 22 mph 1009.1mb 58f 55f
4:40am  -   -   -  16 20 mph 1009mb 58f 55f
4:30am  -   -   -  18 22 mph 1009mb 58f 55f
4:20am  -   -   -  18 22 mph 1008.8mb 58f 55f
4:10am  -   -   -  18 22 mph 1008.8mb 58f 56f
4:00am  -   -   -  18 22 mph 1008.6mb 58f 56f